sensor_id;sensor_type;location;lat;lon;timestamp;P1;durP1;ratioP1;P2;durP2;ratioP2
2211;SDS011;48849;48.758;9.158;2023-04-21T00:01:03;13.80;;;12.50;;
2211;SDS011;48849;48.758;9.158;2023-04-21T00:03:32;13.48;;;12.07;;
2211;SDS011;48849;48.758;9.158;2023-04-21T00:06:02;14.15;;;12.57;;
2211;SDS011;48849;48.758;9.158;2023-04-21T00:08:46;12.63;;;11.43;;
2211;SDS011;48849;48.758;9.158;2023-04-21T00:11:15;13.45;;;12.15;;
2211;SDS011;48849;48.758;9.158;2023-04-21T00:13:42;15.32;;;13.77;;
2211;SDS011;48849;48.758;9.158;2023-04-21T00:16:09;14.75;;;13.30;;
2211;SDS011;48849;48.758;9.158;2023-04-21T00:18:36;14.70;;;13.20;;
2211;SDS011;48849;48.758;9.158;2023-04-21T00:21:03;13.80;;;12.45;;
2211;SDS011;48849;48.758;9.158;2023-04-21T00:23:30;13.45;;;12.05;;
2211;SDS011;48849;48.758;9.158;2023-04-21T00:25:57;13.27;;;12.05;;
2211;SDS011;48849;48.758;9.158;2023-04-21T00:28:28;13.30;;;12.02;;
2211;SDS011;48849;48.758;9.158;2023-04-21T00:30:55;13.60;;;12.20;;
2211;SDS011;48849;48.758;9.158;2023-04-21T00:33:22;12.57;;;11.48;;
2211;SDS011;48849;48.758;9.158;2023-04-21T00:35:49;13.00;;;11.70;;
2211;SDS011;48849;48.758;9.158;2023-04-21T00:38:15;12.88;;;11.65;;
2211;SDS011;48849;48.758;9.158;2023-04-21T00:40:42;13.32;;;12.02;;
2211;SDS011;48849;48.758;9.158;2023-04-21T00:43:09;14.18;;;12.77;;
2211;SDS011;48849;48.758;9.158;2023-04-21T00:45:38;14.35;;;12.95;;
2211;SDS011;48849;48.758;9.158;2023-04-21T00:48:05;13.00;;;11.70;;
2211;SDS011;48849;48.758;9.158;2023-04-21T00:50:32;13.02;;;11.68;;
2211;SDS011;48849;48.758;9.158;2023-04-21T00:52:59;11.93;;;10.80;;
2211;SDS011;48849;48.758;9.158;2023-04-21T00:55:26;13.73;;;12.32;;
2211;SDS011;48849;48.758;9.158;2023-04-21T00:57:53;13.10;;;11.80;;
2211;SDS011;48849;48.758;9.158;2023-04-21T01:00:21;13.80;;;12.40;;
2211;SDS011;48849;48.758;9.158;2023-04-21T01:02:50;14.02;;;12.65;;
2211;SDS011;48849;48.758;9.158;2023-04-21T01:05:17;15.30;;;13.70;;
2211;SDS011;48849;48.758;9.158;2023-04-21T01:07:44;14.40;;;13.00;;
2211;SDS011;48849;48.758;9.158;2023-04-21T01:10:12;15.02;;;13.27;;
2211;SDS011;48849;48.758;9.158;2023-04-21T01:12:42;14.85;;;13.40;;
2211;SDS011;48849;48.758;9.158;2023-04-21T01:15:10;15.05;;;13.65;;
2211;SDS011;48849;48.758;9.158;2023-04-21T01:17:37;14.77;;;13.10;;
2211;SDS011;48849;48.758;9.158;2023-04-21T01:20:06;15.40;;;13.82;;
2211;SDS011;48849;48.758;9.158;2023-04-21T01:22:37;14.38;;;12.80;;
2211;SDS011;48849;48.758;9.158;2023-04-21T01:25:06;12.15;;;10.93;;
2211;SDS011;48849;48.758;9.158;2023-04-21T01:27:33;13.60;;;12.20;;
2211;SDS011;48849;48.758;9.158;2023-04-21T01:30:00;13.20;;;11.90;;
2211;SDS011;48849;48.758;9.158;2023-04-21T01:32:28;14.60;;;13.13;;
2211;SDS011;48849;48.758;9.158;2023-04-21T01:34:55;14.50;;;13.02;;
2211;SDS011;48849;48.758;9.158;2023-04-21T01:37:24;16.13;;;14.52;;
2211;SDS011;48849;48.758;9.158;2023-04-21T01:39:54;16.33;;;14.73;;
2211;SDS011;48849;48.758;9.158;2023-04-21T01:42:22;16.05;;;14.35;;
2211;SDS011;48849;48.758;9.158;2023-04-21T01:44:51;16.25;;;14.55;;
2211;SDS011;48849;48.758;9.158;2023-04-21T01:47:18;15.75;;;14.15;;
2211;SDS011;48849;48.758;9.158;2023-04-21T01:49:46;16.13;;;14.60;;
2211;SDS011;48849;48.758;9.158;2023-04-21T01:52:13;16.92;;;15.23;;
2211;SDS011;48849;48.758;9.158;2023-04-21T01:54:39;17.88;;;16.17;;
2211;SDS011;48849;48.758;9.158;2023-04-21T01:57:08;19.35;;;17.38;;
2211;SDS011;48849;48.758;9.158;2023-04-21T01:59:34;17.02;;;14.98;;
2211;SDS011;48849;48.758;9.158;2023-04-21T02:02:01;18.65;;;16.75;;
2211;SDS011;48849;48.758;9.158;2023-04-21T02:04:28;19.58;;;17.52;;
2211;SDS011;48849;48.758;9.158;2023-04-21T02:06:57;19.58;;;17.48;;
2211;SDS011;48849;48.758;9.158;2023-04-21T02:09:32;18.75;;;16.85;;
2211;SDS011;48849;48.758;9.158;2023-04-21T02:11:59;18.63;;;16.15;;
2211;SDS011;48849;48.758;9.158;2023-04-21T02:14:27;18.38;;;16.48;;
2211;SDS011;48849;48.758;9.158;2023-04-21T02:16:54;18.23;;;16.50;;
2211;SDS011;48849;48.758;9.158;2023-04-21T02:19:21;20.00;;;17.73;;
2211;SDS011;48849;48.758;9.158;2023-04-21T02:21:48;20.80;;;17.98;;
2211;SDS011;48849;48.758;9.158;2023-04-21T02:24:15;20.00;;;17.50;;
2211;SDS011;48849;48.758;9.158;2023-04-21T02:26:41;20.02;;;18.02;;
2211;SDS011;48849;48.758;9.158;2023-04-21T02:29:08;19.42;;;17.30;;
2211;SDS011;48849;48.758;9.158;2023-04-21T02:31:37;17.52;;;15.80;;
2211;SDS011;48849;48.758;9.158;2023-04-21T02:34:04;19.50;;;17.40;;
2211;SDS011;48849;48.758;9.158;2023-04-21T02:36:31;17.95;;;16.23;;
2211;SDS011;48849;48.758;9.158;2023-04-21T02:38:58;18.42;;;16.30;;
2211;SDS011;48849;48.758;9.158;2023-04-21T02:41:25;18.40;;;16.50;;
2211;SDS011;48849;48.758;9.158;2023-04-21T02:43:52;18.92;;;17.02;;
2211;SDS011;48849;48.758;9.158;2023-04-21T02:46:19;19.40;;;17.42;;
2211;SDS011;48849;48.758;9.158;2023-04-21T02:48:47;20.15;;;18.15;;
2211;SDS011;48849;48.758;9.158;2023-04-21T02:51:15;19.40;;;17.15;;
2211;SDS011;48849;48.758;9.158;2023-04-21T02:53:43;19.75;;;17.85;;
2211;SDS011;48849;48.758;9.158;2023-04-21T02:56:10;18.70;;;16.80;;
2211;SDS011;48849;48.758;9.158;2023-04-21T02:58:37;18.88;;;16.98;;
2211;SDS011;48849;48.758;9.158;2023-04-21T03:01:04;19.30;;;17.30;;
2211;SDS011;48849;48.758;9.158;2023-04-21T03:03:31;18.10;;;16.20;;
2211;SDS011;48849;48.758;9.158;2023-04-21T03:06:00;18.42;;;16.63;;
2211;SDS011;48849;48.758;9.158;2023-04-21T03:08:28;19.33;;;17.05;;
2211;SDS011;48849;48.758;9.158;2023-04-21T03:10:56;18.90;;;17.02;;
2211;SDS011;48849;48.758;9.158;2023-04-21T03:13:23;19.00;;;17.10;;
2211;SDS011;48849;48.758;9.158;2023-04-21T03:15:50;19.17;;;17.10;;
2211;SDS011;48849;48.758;9.158;2023-04-21T03:18:17;19.52;;;17.48;;
2211;SDS011;48849;48.758;9.158;2023-04-21T03:20:44;20.40;;;18.30;;
2211;SDS011;48849;48.758;9.158;2023-04-21T03:23:13;19.00;;;17.00;;
2211;SDS011;48849;48.758;9.158;2023-04-21T03:25:40;17.27;;;15.52;;
2211;SDS011;48849;48.758;9.158;2023-04-21T03:28:08;19.88;;;17.77;;
2211;SDS011;48849;48.758;9.158;2023-04-21T03:30:35;19.08;;;17.08;;
2211;SDS011;48849;48.758;9.158;2023-04-21T03:33:02;18.20;;;16.30;;
2211;SDS011;48849;48.758;9.158;2023-04-21T03:35:29;20.35;;;17.02;;
2211;SDS011;48849;48.758;9.158;2023-04-21T03:37:56;17.48;;;15.65;;
2211;SDS011;48849;48.758;9.158;2023-04-21T03:40:24;19.10;;;16.50;;
2211;SDS011;48849;48.758;9.158;2023-04-21T03:42:51;19.58;;;17.30;;
2211;SDS011;48849;48.758;9.158;2023-04-21T03:45:18;17.75;;;16.02;;
2211;SDS011;48849;48.758;9.158;2023-04-21T03:47:46;20.35;;;17.98;;
2211;SDS011;48849;48.758;9.158;2023-04-21T03:50:13;19.65;;;16.70;;
2211;SDS011;48849;48.758;9.158;2023-04-21T03:52:41;20.98;;;17.83;;
2211;SDS011;48849;48.758;9.158;2023-04-21T03:55:08;18.65;;;16.65;;
2211;SDS011;48849;48.758;9.158;2023-04-21T03:57:38;19.83;;;17.52;;
2211;SDS011;48849;48.758;9.158;2023-04-21T04:00:06;18.67;;;16.60;;
2211;SDS011;48849;48.758;9.158;2023-04-21T04:02:35;19.67;;;16.75;;
2211;SDS011;48849;48.758;9.158;2023-04-21T04:05:02;17.48;;;15.68;;
2211;SDS011;48849;48.758;9.158;2023-04-21T04:07:30;19.02;;;17.02;;
2211;SDS011;48849;48.758;9.158;2023-04-21T04:09:57;18.65;;;16.38;;
2211;SDS011;48849;48.758;9.158;2023-04-21T04:12:25;19.77;;;16.83;;
2211;SDS011;48849;48.758;9.158;2023-04-21T04:14:53;17.52;;;15.73;;
2211;SDS011;48849;48.758;9.158;2023-04-21T04:17:20;19.10;;;16.60;;
2211;SDS011;48849;48.758;9.158;2023-04-21T04:19:47;18.85;;;16.60;;
2211;SDS011;48849;48.758;9.158;2023-04-21T04:22:14;18.02;;;16.13;;
2211;SDS011;48849;48.758;9.158;2023-04-21T04:24:41;18.00;;;16.10;;
2211;SDS011;48849;48.758;9.158;2023-04-21T04:27:09;20.20;;;18.00;;
2211;SDS011;48849;48.758;9.158;2023-04-21T04:29:39;22.15;;;17.70;;
2211;SDS011;48849;48.758;9.158;2023-04-21T04:32:08;18.75;;;16.75;;
2211;SDS011;48849;48.758;9.158;2023-04-21T04:34:35;18.80;;;16.75;;
2211;SDS011;48849;48.758;9.158;2023-04-21T04:37:02;20.52;;;17.48;;
2211;SDS011;48849;48.758;9.158;2023-04-21T04:39:30;19.70;;;17.60;;
2211;SDS011;48849;48.758;9.158;2023-04-21T04:41:57;19.35;;;17.27;;
2211;SDS011;48849;48.758;9.158;2023-04-21T04:44:25;18.55;;;16.15;;
2211;SDS011;48849;48.758;9.158;2023-04-21T04:46:52;18.63;;;16.63;;
2211;SDS011;48849;48.758;9.158;2023-04-21T04:49:20;17.42;;;15.55;;
2211;SDS011;48849;48.758;9.158;2023-04-21T04:51:47;19.75;;;17.65;;
2211;SDS011;48849;48.758;9.158;2023-04-21T04:54:14;20.60;;;17.77;;
2211;SDS011;48849;48.758;9.158;2023-04-21T04:56:41;19.52;;;17.45;;
2211;SDS011;48849;48.758;9.158;2023-04-21T04:59:08;20.90;;;18.25;;
2211;SDS011;48849;48.758;9.158;2023-04-21T05:01:35;20.63;;;17.25;;
2211;SDS011;48849;48.758;9.158;2023-04-21T05:04:04;20.02;;;17.73;;
2211;SDS011;48849;48.758;9.158;2023-04-21T05:06:33;21.67;;;18.85;;
2211;SDS011;48849;48.758;9.158;2023-04-21T05:09:00;19.90;;;17.80;;
2211;SDS011;48849;48.758;9.158;2023-04-21T05:11:26;21.15;;;18.73;;
2211;SDS011;48849;48.758;9.158;2023-04-21T05:13:53;18.88;;;16.85;;
2211;SDS011;48849;48.758;9.158;2023-04-21T05:16:21;18.48;;;16.55;;
2211;SDS011;48849;48.758;9.158;2023-04-21T05:18:48;19.80;;;17.70;;
2211;SDS011;48849;48.758;9.158;2023-04-21T05:21:21;24.67;;;17.83;;
2211;SDS011;48849;48.758;9.158;2023-04-21T05:23:52;19.98;;;17.85;;
2211;SDS011;48849;48.758;9.158;2023-04-21T05:26:19;22.13;;;19.20;;
2211;SDS011;48849;48.758;9.158;2023-04-21T05:28:46;20.83;;;18.60;;
2211;SDS011;48849;48.758;9.158;2023-04-21T05:31:13;22.70;;;19.58;;
2211;SDS011;48849;48.758;9.158;2023-04-21T05:33:40;19.80;;;17.65;;
2211;SDS011;48849;48.758;9.158;2023-04-21T05:36:07;19.75;;;17.15;;
2211;SDS011;48849;48.758;9.158;2023-04-21T05:38:35;22.58;;;18.45;;
2211;SDS011;48849;48.758;9.158;2023-04-21T05:41:04;24.85;;;19.88;;
2211;SDS011;48849;48.758;9.158;2023-04-21T05:43:31;25.00;;;18.85;;
2211;SDS011;48849;48.758;9.158;2023-04-21T05:45:58;20.25;;;18.08;;
2211;SDS011;48849;48.758;9.158;2023-04-21T05:48:25;22.52;;;19.08;;
2211;SDS011;48849;48.758;9.158;2023-04-21T05:50:52;20.55;;;18.42;;
2211;SDS011;48849;48.758;9.158;2023-04-21T05:53:19;24.30;;;19.98;;
2211;SDS011;48849;48.758;9.158;2023-04-21T05:55:47;21.83;;;19.30;;
2211;SDS011;48849;48.758;9.158;2023-04-21T05:58:18;24.27;;;20.40;;
2211;SDS011;48849;48.758;9.158;2023-04-21T06:00:46;21.98;;;19.20;;
2211;SDS011;48849;48.758;9.158;2023-04-21T06:03:14;24.73;;;18.77;;
2211;SDS011;48849;48.758;9.158;2023-04-21T06:05:42;23.50;;;19.20;;
2211;SDS011;48849;48.758;9.158;2023-04-21T06:08:08;22.92;;;19.85;;
2211;SDS011;48849;48.758;9.158;2023-04-21T06:10:35;26.35;;;21.50;;
2211;SDS011;48849;48.758;9.158;2023-04-21T06:13:07;26.20;;;20.65;;
2211;SDS011;48849;48.758;9.158;2023-04-21T06:15:38;25.38;;;20.58;;
2211;SDS011;48849;48.758;9.158;2023-04-21T06:18:05;24.23;;;20.58;;
2211;SDS011;48849;48.758;9.158;2023-04-21T06:20:32;23.65;;;20.30;;
2211;SDS011;48849;48.758;9.158;2023-04-21T06:22:58;28.60;;;23.30;;
2211;SDS011;48849;48.758;9.158;2023-04-21T06:25:25;25.10;;;20.60;;
2211;SDS011;48849;48.758;9.158;2023-04-21T06:27:57;25.58;;;21.38;;
2211;SDS011;48849;48.758;9.158;2023-04-21T06:30:24;28.00;;;21.88;;
2211;SDS011;48849;48.758;9.158;2023-04-21T06:32:52;25.55;;;20.65;;
2211;SDS011;48849;48.758;9.158;2023-04-21T06:35:19;24.90;;;21.20;;
2211;SDS011;48849;48.758;9.158;2023-04-21T06:37:46;24.42;;;20.23;;
2211;SDS011;48849;48.758;9.158;2023-04-21T06:40:13;27.13;;;21.52;;
2211;SDS011;48849;48.758;9.158;2023-04-21T06:42:40;24.55;;;20.85;;
2211;SDS011;48849;48.758;9.158;2023-04-21T06:45:08;27.33;;;21.83;;
2211;SDS011;48849;48.758;9.158;2023-04-21T06:47:42;26.48;;;22.17;;
2211;SDS011;48849;48.758;9.158;2023-04-21T06:50:13;23.70;;;20.70;;
2211;SDS011;48849;48.758;9.158;2023-04-21T06:52:45;24.95;;;21.10;;
2211;SDS011;48849;48.758;9.158;2023-04-21T06:58:17;27.58;;;22.05;;
2211;SDS011;48849;48.758;9.158;2023-04-21T07:00:46;26.23;;;22.00;;
2211;SDS011;48849;48.758;9.158;2023-04-21T07:03:14;26.27;;;21.67;;
2211;SDS011;48849;48.758;9.158;2023-04-21T07:05:44;27.15;;;22.30;;
2211;SDS011;48849;48.758;9.158;2023-04-21T07:11:07;23.90;;;19.92;;
2211;SDS011;48849;48.758;9.158;2023-04-21T07:13:34;28.02;;;22.73;;
2211;SDS011;48849;48.758;9.158;2023-04-21T07:16:08;26.42;;;23.35;;
2211;SDS011;48849;48.758;9.158;2023-04-21T07:18:37;27.15;;;22.35;;
2211;SDS011;48849;48.758;9.158;2023-04-21T07:21:07;25.70;;;21.30;;
2211;SDS011;48849;48.758;9.158;2023-04-21T07:23:34;23.75;;;20.67;;
2211;SDS011;48849;48.758;9.158;2023-04-21T07:26:03;27.25;;;22.27;;
2211;SDS011;48849;48.758;9.158;2023-04-21T07:28:31;28.80;;;22.25;;
2211;SDS011;48849;48.758;9.158;2023-04-21T07:30:58;26.15;;;22.17;;
2211;SDS011;48849;48.758;9.158;2023-04-21T07:33:27;24.02;;;20.38;;
2211;SDS011;48849;48.758;9.158;2023-04-21T07:35:58;27.42;;;22.65;;
2211;SDS011;48849;48.758;9.158;2023-04-21T07:38:29;25.58;;;21.30;;
2211;SDS011;48849;48.758;9.158;2023-04-21T07:40:57;24.75;;;20.63;;
2211;SDS011;48849;48.758;9.158;2023-04-21T07:43:32;24.38;;;21.77;;
2211;SDS011;48849;48.758;9.158;2023-04-21T07:46:01;28.50;;;23.02;;
2211;SDS011;48849;48.758;9.158;2023-04-21T07:48:28;27.33;;;23.33;;
2211;SDS011;48849;48.758;9.158;2023-04-21T07:50:55;27.17;;;21.50;;
2211;SDS011;48849;48.758;9.158;2023-04-21T07:53:26;26.10;;;21.48;;
2211;SDS011;48849;48.758;9.158;2023-04-21T07:55:57;25.55;;;22.85;;
2211;SDS011;48849;48.758;9.158;2023-04-21T07:58:24;29.55;;;23.88;;
2211;SDS011;48849;48.758;9.158;2023-04-21T08:00:56;24.98;;;22.27;;
2211;SDS011;48849;48.758;9.158;2023-04-21T08:03:22;23.65;;;20.20;;
2211;SDS011;48849;48.758;9.158;2023-04-21T08:05:55;22.45;;;20.05;;
2211;SDS011;48849;48.758;9.158;2023-04-21T08:08:22;22.63;;;18.83;;
2211;SDS011;48849;48.758;9.158;2023-04-21T08:10:50;26.00;;;21.38;;
2211;SDS011;48849;48.758;9.158;2023-04-21T08:13:17;23.95;;;19.58;;
2211;SDS011;48849;48.758;9.158;2023-04-21T08:15:45;21.08;;;18.42;;
2211;SDS011;48849;48.758;9.158;2023-04-21T08:18:12;19.70;;;17.50;;
2211;SDS011;48849;48.758;9.158;2023-04-21T08:20:41;19.17;;;16.45;;
2211;SDS011;48849;48.758;9.158;2023-04-21T08:23:09;19.30;;;16.35;;
2211;SDS011;48849;48.758;9.158;2023-04-21T08:25:35;17.80;;;15.90;;
2211;SDS011;48849;48.758;9.158;2023-04-21T08:28:03;20.50;;;17.58;;
2211;SDS011;48849;48.758;9.158;2023-04-21T08:30:31;21.10;;;17.15;;
2211;SDS011;48849;48.758;9.158;2023-04-21T08:32:58;17.08;;;15.20;;
2211;SDS011;48849;48.758;9.158;2023-04-21T08:35:27;17.70;;;15.80;;
2211;SDS011;48849;48.758;9.158;2023-04-21T08:37:54;18.55;;;15.13;;
2211;SDS011;48849;48.758;9.158;2023-04-21T08:40:28;19.13;;;16.45;;
2211;SDS011;48849;48.758;9.158;2023-04-21T08:43:10;16.70;;;14.90;;
2211;SDS011;48849;48.758;9.158;2023-04-21T08:45:39;17.73;;;15.82;;
2211;SDS011;48849;48.758;9.158;2023-04-21T08:48:07;18.23;;;15.43;;
2211;SDS011;48849;48.758;9.158;2023-04-21T08:50:40;17.40;;;15.20;;
2211;SDS011;48849;48.758;9.158;2023-04-21T08:53:09;18.80;;;16.20;;
2211;SDS011;48849;48.758;9.158;2023-04-21T08:55:36;17.70;;;15.77;;
2211;SDS011;48849;48.758;9.158;2023-04-21T08:58:03;14.82;;;13.32;;
2211;SDS011;48849;48.758;9.158;2023-04-21T09:00:32;17.08;;;15.15;;
2211;SDS011;48849;48.758;9.158;2023-04-21T09:02:59;18.25;;;15.30;;
2211;SDS011;48849;48.758;9.158;2023-04-21T09:05:28;19.15;;;16.25;;
2211;SDS011;48849;48.758;9.158;2023-04-21T09:08:06;18.42;;;15.23;;
2211;SDS011;48849;48.758;9.158;2023-04-21T09:10:41;18.30;;;15.60;;
2211;SDS011;48849;48.758;9.158;2023-04-21T09:13:08;18.50;;;16.33;;
2211;SDS011;48849;48.758;9.158;2023-04-21T09:15:39;21.00;;;17.15;;
2211;SDS011;48849;48.758;9.158;2023-04-21T09:18:09;18.52;;;16.08;;
2211;SDS011;48849;48.758;9.158;2023-04-21T09:20:39;15.73;;;14.07;;
2211;SDS011;48849;48.758;9.158;2023-04-21T09:23:07;16.30;;;14.27;;
2211;SDS011;48849;48.758;9.158;2023-04-21T09:25:36;18.83;;;15.48;;
2211;SDS011;48849;48.758;9.158;2023-04-21T09:28:06;17.85;;;14.05;;
2211;SDS011;48849;48.758;9.158;2023-04-21T09:30:34;16.65;;;14.00;;
2211;SDS011;48849;48.758;9.158;2023-04-21T09:33:03;13.93;;;12.43;;
2211;SDS011;48849;48.758;9.158;2023-04-21T09:35:33;14.40;;;12.63;;
2211;SDS011;48849;48.758;9.158;2023-04-21T09:38:01;15.60;;;13.45;;
2211;SDS011;48849;48.758;9.158;2023-04-21T09:40:29;15.05;;;13.55;;
2211;SDS011;48849;48.758;9.158;2023-04-21T09:42:56;14.25;;;12.27;;
2211;SDS011;48849;48.758;9.158;2023-04-21T09:45:23;16.17;;;12.88;;
2211;SDS011;48849;48.758;9.158;2023-04-21T09:47:53;14.27;;;12.73;;
2211;SDS011;48849;48.758;9.158;2023-04-21T09:50:23;13.80;;;12.38;;
2211;SDS011;48849;48.758;9.158;2023-04-21T09:52:51;13.63;;;12.25;;
2211;SDS011;48849;48.758;9.158;2023-04-21T09:55:21;13.13;;;11.73;;
2211;SDS011;48849;48.758;9.158;2023-04-21T09:57:58;12.50;;;11.27;;
2211;SDS011;48849;48.758;9.158;2023-04-21T10:00:26;12.77;;;11.48;;
2211;SDS011;48849;48.758;9.158;2023-04-21T10:02:57;14.38;;;11.48;;
2211;SDS011;48849;48.758;9.158;2023-04-21T10:05:27;12.38;;;11.10;;
2211;SDS011;48849;48.758;9.158;2023-04-21T10:07:55;13.35;;;11.85;;
2211;SDS011;48849;48.758;9.158;2023-04-21T10:10:25;16.75;;;11.27;;
2211;SDS011;48849;48.758;9.158;2023-04-21T10:12:53;10.55;;;9.45;;
2211;SDS011;48849;48.758;9.158;2023-04-21T10:15:27;10.25;;;9.15;;
2211;SDS011;48849;48.758;9.158;2023-04-21T10:18:09;10.07;;;9.07;;
2211;SDS011;48849;48.758;9.158;2023-04-21T10:20:50;10.90;;;8.55;;
2211;SDS011;48849;48.758;9.158;2023-04-21T10:23:28;9.00;;;8.07;;
2211;SDS011;48849;48.758;9.158;2023-04-21T10:26:02;9.85;;;8.65;;
2211;SDS011;48849;48.758;9.158;2023-04-21T10:28:41;9.98;;;9.00;;
2211;SDS011;48849;48.758;9.158;2023-04-21T10:31:17;11.32;;;9.32;;
2211;SDS011;48849;48.758;9.158;2023-04-21T10:36:42;8.40;;;7.45;;
2211;SDS011;48849;48.758;9.158;2023-04-21T10:39:32;9.80;;;8.00;;
2211;SDS011;48849;48.758;9.158;2023-04-21T10:44:49;8.52;;;7.72;;
2211;SDS011;48849;48.758;9.158;2023-04-21T10:47:23;9.63;;;8.63;;
2211;SDS011;48849;48.758;9.158;2023-04-21T10:49:50;7.93;;;7.13;;
2211;SDS011;48849;48.758;9.158;2023-04-21T10:52:21;9.98;;;8.98;;
2211;SDS011;48849;48.758;9.158;2023-04-21T10:55:06;10.40;;;9.30;;
2211;SDS011;48849;48.758;9.158;2023-04-21T10:57:36;9.50;;;8.15;;
2211;SDS011;48849;48.758;9.158;2023-04-21T11:00:07;9.20;;;7.97;;
2211;SDS011;48849;48.758;9.158;2023-04-21T11:02:36;9.13;;;7.80;;
2211;SDS011;48849;48.758;9.158;2023-04-21T11:05:04;7.80;;;6.53;;
2211;SDS011;48849;48.758;9.158;2023-04-21T11:07:38;8.57;;;7.68;;
2211;SDS011;48849;48.758;9.158;2023-04-21T11:10:08;8.85;;;7.72;;
2211;SDS011;48849;48.758;9.158;2023-04-21T11:12:36;9.23;;;7.97;;
2211;SDS011;48849;48.758;9.158;2023-04-21T11:15:11;12.98;;;9.65;;
2211;SDS011;48849;48.758;9.158;2023-04-21T11:17:40;11.40;;;10.20;;
2211;SDS011;48849;48.758;9.158;2023-04-21T11:20:11;11.30;;;10.07;;
2211;SDS011;48849;48.758;9.158;2023-04-21T11:22:40;11.50;;;10.35;;
2211;SDS011;48849;48.758;9.158;2023-04-21T11:25:15;8.65;;;7.85;;
2211;SDS011;48849;48.758;9.158;2023-04-21T11:27:51;8.35;;;7.55;;
2211;SDS011;48849;48.758;9.158;2023-04-21T11:30:19;9.13;;;8.30;;
2211;SDS011;48849;48.758;9.158;2023-04-21T11:32:52;9.75;;;8.77;;
2211;SDS011;48849;48.758;9.158;2023-04-21T11:35:19;9.50;;;8.50;;
2211;SDS011;48849;48.758;9.158;2023-04-21T11:37:48;8.30;;;7.50;;
2211;SDS011;48849;48.758;9.158;2023-04-21T11:40:17;9.15;;;8.13;;
2211;SDS011;48849;48.758;9.158;2023-04-21T11:42:47;10.45;;;9.45;;
2211;SDS011;48849;48.758;9.158;2023-04-21T11:45:18;8.25;;;7.45;;
2211;SDS011;48849;48.758;9.158;2023-04-21T11:47:46;10.02;;;8.48;;
2211;SDS011;48849;48.758;9.158;2023-04-21T11:50:16;9.45;;;7.80;;
2211;SDS011;48849;48.758;9.158;2023-04-21T11:53:04;10.40;;;9.30;;
2211;SDS011;48849;48.758;9.158;2023-04-21T11:55:34;9.48;;;8.52;;
2211;SDS011;48849;48.758;9.158;2023-04-21T11:58:07;8.40;;;7.60;;
2211;SDS011;48849;48.758;9.158;2023-04-21T12:00:34;8.60;;;7.40;;
2211;SDS011;48849;48.758;9.158;2023-04-21T12:03:01;9.70;;;8.18;;
2211;SDS011;48849;48.758;9.158;2023-04-21T12:05:40;9.88;;;8.45;;
2211;SDS011;48849;48.758;9.158;2023-04-21T12:08:13;9.75;;;7.90;;
2211;SDS011;48849;48.758;9.158;2023-04-21T12:10:43;9.20;;;8.32;;
2211;SDS011;48849;48.758;9.158;2023-04-21T12:13:12;7.80;;;7.10;;
2211;SDS011;48849;48.758;9.158;2023-04-21T12:15:45;7.22;;;6.47;;
2211;SDS011;48849;48.758;9.158;2023-04-21T12:18:14;8.55;;;7.57;;
2211;SDS011;48849;48.758;9.158;2023-04-21T12:20:47;8.38;;;7.57;;
2211;SDS011;48849;48.758;9.158;2023-04-21T12:23:17;10.35;;;8.05;;
2211;SDS011;48849;48.758;9.158;2023-04-21T12:25:44;10.52;;;7.85;;
2211;SDS011;48849;48.758;9.158;2023-04-21T12:28:13;8.75;;;7.97;;
2211;SDS011;48849;48.758;9.158;2023-04-21T12:30:43;8.70;;;7.90;;
2211;SDS011;48849;48.758;9.158;2023-04-21T12:33:16;8.88;;;8.02;;
2211;SDS011;48849;48.758;9.158;2023-04-21T12:35:46;7.88;;;7.10;;
2211;SDS011;48849;48.758;9.158;2023-04-21T12:41:02;9.40;;;8.40;;
2211;SDS011;48849;48.758;9.158;2023-04-21T12:43:33;7.10;;;6.50;;
2211;SDS011;48849;48.758;9.158;2023-04-21T12:46:07;7.68;;;6.88;;
2211;SDS011;48849;48.758;9.158;2023-04-21T12:48:36;7.35;;;6.70;;
2211;SDS011;48849;48.758;9.158;2023-04-21T12:51:04;8.40;;;7.10;;
2211;SDS011;48849;48.758;9.158;2023-04-21T12:53:39;6.80;;;6.10;;
2211;SDS011;48849;48.758;9.158;2023-04-21T12:56:09;5.70;;;5.10;;
2211;SDS011;48849;48.758;9.158;2023-04-21T12:58:37;6.60;;;5.57;;
2211;SDS011;48849;48.758;9.158;2023-04-21T13:01:04;5.87;;;5.37;;
2211;SDS011;48849;48.758;9.158;2023-04-21T13:03:32;6.50;;;4.80;;
2211;SDS011;48849;48.758;9.158;2023-04-21T13:05:59;6.07;;;5.53;;
2211;SDS011;48849;48.758;9.158;2023-04-21T13:08:30;6.00;;;5.40;;
2211;SDS011;48849;48.758;9.158;2023-04-21T13:10:59;5.27;;;4.80;;
2211;SDS011;48849;48.758;9.158;2023-04-21T13:13:26;7.30;;;4.63;;
2211;SDS011;48849;48.758;9.158;2023-04-21T13:15:58;5.80;;;5.30;;
2211;SDS011;48849;48.758;9.158;2023-04-21T13:18:27;5.37;;;4.90;;
2211;SDS011;48849;48.758;9.158;2023-04-21T13:21:00;6.50;;;5.90;;
2211;SDS011;48849;48.758;9.158;2023-04-21T13:23:27;5.70;;;5.20;;
2211;SDS011;48849;48.758;9.158;2023-04-21T13:26:03;5.73;;;5.13;;
2211;SDS011;48849;48.758;9.158;2023-04-21T13:28:35;5.47;;;4.97;;
2211;SDS011;48849;48.758;9.158;2023-04-21T13:31:23;6.13;;;5.27;;
2211;SDS011;48849;48.758;9.158;2023-04-21T13:34:00;5.40;;;5.00;;
2211;SDS011;48849;48.758;9.158;2023-04-21T13:36:27;5.90;;;5.30;;
2211;SDS011;48849;48.758;9.158;2023-04-21T13:38:58;6.43;;;4.90;;
2211;SDS011;48849;48.758;9.158;2023-04-21T13:41:31;4.40;;;4.03;;
2211;SDS011;48849;48.758;9.158;2023-04-21T13:44:01;5.60;;;5.10;;
2211;SDS011;48849;48.758;9.158;2023-04-21T13:46:30;5.30;;;4.73;;
2211;SDS011;48849;48.758;9.158;2023-04-21T13:49:00;3.77;;;3.47;;
2211;SDS011;48849;48.758;9.158;2023-04-21T13:51:29;4.13;;;3.63;;
2211;SDS011;48849;48.758;9.158;2023-04-21T13:53:56;4.70;;;4.30;;
2211;SDS011;48849;48.758;9.158;2023-04-21T13:56:25;4.77;;;4.37;;
2211;SDS011;48849;48.758;9.158;2023-04-21T13:58:53;5.33;;;4.83;;
2211;SDS011;48849;48.758;9.158;2023-04-21T14:01:20;5.00;;;4.60;;
2211;SDS011;48849;48.758;9.158;2023-04-21T14:03:47;4.93;;;4.43;;
2211;SDS011;48849;48.758;9.158;2023-04-21T14:06:14;4.87;;;4.37;;
2211;SDS011;48849;48.758;9.158;2023-04-21T14:08:41;4.87;;;4.47;;
2211;SDS011;48849;48.758;9.158;2023-04-21T14:11:08;5.00;;;4.60;;
2211;SDS011;48849;48.758;9.158;2023-04-21T14:13:35;4.60;;;4.20;;
2211;SDS011;48849;48.758;9.158;2023-04-21T14:16:03;6.50;;;4.33;;
2211;SDS011;48849;48.758;9.158;2023-04-21T14:18:33;4.83;;;4.33;;
2211;SDS011;48849;48.758;9.158;2023-04-21T14:21:00;4.73;;;3.70;;
2211;SDS011;48849;48.758;9.158;2023-04-21T14:23:27;5.60;;;3.78;;
2211;SDS011;48849;48.758;9.158;2023-04-21T14:25:54;5.05;;;4.00;;
2211;SDS011;48849;48.758;9.158;2023-04-21T14:28:21;4.50;;;4.10;;
2211;SDS011;48849;48.758;9.158;2023-04-21T14:30:49;5.68;;;4.32;;
2211;SDS011;48849;48.758;9.158;2023-04-21T14:33:22;4.40;;;4.00;;
2211;SDS011;48849;48.758;9.158;2023-04-21T14:35:56;9.98;;;9.00;;
2211;SDS011;48849;48.758;9.158;2023-04-21T14:38:37;14.73;;;13.23;;
2211;SDS011;48849;48.758;9.158;2023-04-21T14:41:20;13.57;;;12.20;;
2211;SDS011;48849;48.758;9.158;2023-04-21T14:43:48;14.05;;;12.65;;
2211;SDS011;48849;48.758;9.158;2023-04-21T14:46:17;21.42;;;19.08;;
2211;SDS011;48849;48.758;9.158;2023-04-21T14:48:46;14.60;;;12.55;;
2211;SDS011;48849;48.758;9.158;2023-04-21T14:51:13;7.80;;;7.00;;
2211;SDS011;48849;48.758;9.158;2023-04-21T14:53:48;7.32;;;5.90;;
2211;SDS011;48849;48.758;9.158;2023-04-21T14:56:17;7.57;;;5.88;;
2211;SDS011;48849;48.758;9.158;2023-04-21T14:58:44;7.00;;;5.65;;
2211;SDS011;48849;48.758;9.158;2023-04-21T15:01:16;6.85;;;6.15;;
2211;SDS011;48849;48.758;9.158;2023-04-21T15:03:53;8.00;;;5.80;;
2211;SDS011;48849;48.758;9.158;2023-04-21T15:06:21;5.80;;;5.30;;